Time;durP1;ratioP1;P1;durP2;ratioP2;P2;SDS_P1;SDS_P2;PMS_P1;PMS_P2;Temp;Humidity;BMP_temperature;BMP_pressure;BME280_temperature;BME280_humidity;BME280_pressure;Samples;Min_cycle;Max_cycle;Signal;HPM_P1;HPM_P2
2021/01/18 00:00:36;;;;;;;16.90;12.50;;;2.10;99.90;;;;;;5072077;28;20265;-91
2021/01/18 00:03:03;;;;;;;21.03;12.73;;;2.00;99.90;;;;;;5025719;28;20187;-91
2021/01/18 00:05:28;;;;;;;18.83;12.80;;;2.00;99.90;;;;;;5042667;28;20180;-92
2021/01/18 00:07:54;;;;;;;15.47;11.83;;;2.00;99.90;;;;;;5025653;28;20609;-91
2021/01/18 00:10:24;;;;;;;18.23;12.27;;;2.00;99.90;;;;;;5042532;28;20703;-90
2021/01/18 00:12:52;;;;;;;17.80;11.87;;;2.00;99.90;;;;;;5025554;28;20548;-91
2021/01/18 00:15:20;;;;;;;18.83;12.13;;;2.00;99.90;;;;;;5042756;28;20203;-91
2021/01/18 00:17:46;;;;;;;15.27;12.03;;;2.00;99.90;;;;;;5042136;28;20203;-91
2021/01/18 00:20:13;;;;;;;19.27;11.23;;;2.00;99.90;;;;;;5059392;28;20265;-91
2021/01/18 00:22:40;;;;;;;19.67;11.87;;;2.00;99.90;;;;;;5059413;28;20198;-91
2021/01/18 00:25:09;;;;;;;16.20;10.77;;;2.10;99.90;;;;;;5041497;28;20169;-90
2021/01/18 00:27:35;;;;;;;19.10;11.77;;;2.20;99.90;;;;;;5060054;28;20184;-91
2021/01/18 00:30:02;;;;;;;24.13;12.50;;;2.20;99.90;;;;;;5062261;28;20278;-91
2021/01/18 00:32:28;;;;;;;17.13;11.77;;;2.20;99.90;;;;;;5024970;28;20189;-91
2021/01/18 00:34:54;;;;;;;17.40;11.33;;;2.10;99.90;;;;;;5008179;28;20826;-91
2021/01/18 00:37:19;;;;;;;17.50;12.27;;;2.20;99.90;;;;;;5040307;28;20232;-91
2021/01/18 00:39:45;;;;;;;17.17;11.60;;;2.20;99.90;;;;;;5041243;28;20200;-91
2021/01/18 00:42:18;;;;;;;13.10;11.07;;;2.30;99.90;;;;;;5059257;28;20172;-91
2021/01/18 00:44:43;;;;;;;17.53;11.53;;;2.30;99.90;;;;;;5040262;28;20186;-91
2021/01/18 00:47:09;;;;;;;14.27;10.93;;;2.20;99.90;;;;;;5040805;28;20243;-91
2021/01/18 00:49:35;;;;;;;14.20;10.83;;;2.10;99.90;;;;;;5059156;28;20198;-91
2021/01/18 00:52:00;;;;;;;15.77;11.47;;;2.10;99.90;;;;;;5024423;28;20212;-91
2021/01/18 00:54:26;;;;;;;17.17;11.67;;;2.20;99.90;;;;;;5041145;28;20184;-91
2021/01/18 00:56:52;;;;;;;17.93;11.40;;;2.20;99.90;;;;;;5058956;28;20204;-90
2021/01/18 00:59:17;;;;;;;15.53;11.57;;;2.20;99.90;;;;;;5040962;28;20223;-90
2021/01/18 01:01:43;;;;;;;16.20;10.30;;;2.30;99.90;;;;;;5041409;28;20245;-92
2021/01/18 01:04:09;;;;;;;15.97;10.67;;;2.20;99.90;;;;;;5058527;28;20183;-90
2021/01/18 01:06:35;;;;;;;17.23;11.10;;;2.20;99.90;;;;;;5008115;28;20183;-90
2021/01/18 01:09:02;;;;;;;16.20;11.20;;;2.30;99.90;;;;;;5040404;28;20682;-90
2021/01/18 01:11:28;;;;;;;19.17;11.33;;;2.30;99.90;;;;;;5040297;28;20186;-89
2021/01/18 01:13:53;;;;;;;17.93;11.27;;;2.30;99.90;;;;;;5040408;28;20188;-89
2021/01/18 01:16:19;;;;;;;20.37;11.80;;;2.40;99.90;;;;;;5041004;28;20263;-90
2021/01/18 01:18:44;;;;;;;15.90;10.47;;;2.20;99.90;;;;;;5057875;28;20212;-91
2021/01/18 01:21:10;;;;;;;18.47;11.70;;;2.30;99.90;;;;;;5023799;28;20706;-90
2021/01/18 01:23:36;;;;;;;20.03;11.13;;;2.30;99.90;;;;;;5040779;28;20233;-90
2021/01/18 01:26:02;;;;;;;19.87;10.43;;;2.30;99.90;;;;;;5040647;28;20240;-90
2021/01/18 01:28:28;;;;;;;14.43;10.67;;;2.40;99.90;;;;;;5040484;28;20263;-90
2021/01/18 01:30:54;;;;;;;20.00;11.77;;;2.20;99.90;;;;;;5058287;28;20180;-90
2021/01/18 01:33:19;;;;;;;16.30;11.50;;;2.30;99.90;;;;;;5040538;28;20211;-90
2021/01/18 01:35:45;;;;;;;19.03;12.03;;;2.30;99.90;;;;;;5057764;28;20207;-90
2021/01/18 01:38:11;;;;;;;18.33;12.47;;;2.20;99.90;;;;;;5057837;28;20208;-90
2021/01/18 01:40:37;;;;;;;17.10;11.43;;;2.20;99.90;;;;;;5040120;28;20210;-91
2021/01/18 01:43:04;;;;;;;17.47;11.43;;;2.10;99.90;;;;;;5039688;28;20180;-90
2021/01/18 01:45:30;;;;;;;14.77;10.80;;;2.20;99.90;;;;;;5040475;28;20651;-89
2021/01/18 01:47:57;;;;;;;19.97;11.97;;;2.20;99.90;;;;;;5058195;28;20187;-90
2021/01/18 01:50:28;;;;;;;15.03;10.30;;;2.20;99.90;;;;;;5024470;28;20218;-90
2021/01/18 01:53:08;;;;;;;18.27;10.70;;;2.10;99.90;;;;;;5042096;28;20177;-90
2021/01/18 01:55:34;;;;;;;17.20;10.87;;;2.30;99.90;;;;;;5021275;28;20195;-91
2021/01/18 01:58:02;;;;;;;17.60;10.70;;;2.20;99.90;;;;;;5036767;28;20225;-90
2021/01/18 02:00:36;;;;;;;20.97;11.83;;;2.30;99.90;;;;;;5020998;28;20300;-90
2021/01/18 02:03:15;;;;;;;18.13;11.63;;;2.20;99.90;;;;;;5036849;28;20629;-90
2021/01/18 02:05:43;;;;;;;17.70;11.33;;;2.20;99.90;;;;;;5021594;28;20579;-89
2021/01/18 02:08:10;;;;;;;19.50;12.83;;;2.10;99.90;;;;;;5037315;28;20187;-90
2021/01/18 02:10:36;;;;;;;20.30;12.50;;;2.10;99.90;;;;;;5038203;28;20204;-89
2021/01/18 02:13:29;;;;;;;15.77;11.67;;;2.10;99.90;;;;;;5020807;28;20590;-90
2021/01/18 02:16:03;;;;;;;20.80;12.30;;;2.00;99.90;;;;;;5036385;28;20193;-90
2021/01/18 02:18:41;;;;;;;19.07;12.63;;;2.00;99.90;;;;;;5037858;28;20203;-91
2021/01/18 02:21:12;;;;;;;16.50;10.97;;;2.10;99.90;;;;;;5038481;28;20165;-90
2021/01/18 02:23:44;;;;;;;16.40;10.93;;;2.10;99.90;;;;;;5037458;28;20204;-89
2021/01/18 02:26:18;;;;;;;19.00;11.87;;;2.10;99.90;;;;;;5037430;28;20172;-89
2021/01/18 02:29:10;;;;;;;20.23;11.33;;;2.00;99.90;;;;;;5043155;28;20200;-90
2021/01/18 02:31:44;;;;;;;17.13;10.50;;;2.10;99.90;;;;;;5039010;28;20161;-90
2021/01/18 02:34:32;;;;;;;16.07;11.50;;;2.20;99.90;;;;;;5038152;28;20211;-90
2021/01/18 02:37:03;;;;;;;16.93;10.17;;;2.10;99.90;;;;;;5038199;28;20169;-90
2021/01/18 02:40:01;;;;;;;16.97;10.90;;;2.10;99.90;;;;;;5036899;28;20236;-90
2021/01/18 02:42:34;;;;;;;18.47;10.90;;;2.00;99.90;;;;;;5040000;28;20211;-91
2021/01/18 02:45:00;;;;;;;20.70;10.97;;;2.20;99.90;;;;;;5057861;28;20184;-91
2021/01/18 02:47:30;;;;;;;17.53;11.13;;;2.10;99.90;;;;;;5022106;28;20241;-91
2021/01/18 02:49:59;;;;;;;16.33;10.30;;;2.20;99.90;;;;;;5058306;28;20208;-91
2021/01/18 02:52:24;;;;;;;14.07;10.63;;;2.20;99.90;;;;;;5058449;28;20666;-90
2021/01/18 02:54:50;;;;;;;15.43;10.43;;;2.10;99.90;;;;;;5058080;28;20185;-91
2021/01/18 02:57:17;;;;;;;17.47;10.97;;;2.20;99.90;;;;;;5058106;28;20524;-90
2021/01/18 02:59:43;;;;;;;18.63;11.23;;;2.20;99.90;;;;;;5059338;28;20544;-90
2021/01/18 03:02:22;;;;;;;14.93;10.67;;;2.20;99.90;;;;;;5023702;28;20234;-91
2021/01/18 03:04:59;;;;;;;15.90;10.30;;;2.20;99.90;;;;;;5056056;28;20215;-91
2021/01/18 03:07:31;;;;;;;17.60;11.17;;;2.30;99.90;;;;;;5043861;28;20226;-91
2021/01/18 03:10:08;;;;;;;15.63;10.00;;;2.30;99.90;;;;;;5044193;28;20204;-90
2021/01/18 03:12:48;;;;;;;20.70;9.60;;;2.30;99.90;;;;;;5052157;28;20177;-90
2021/01/18 03:15:15;;;;;;;13.53;9.77;;;2.30;99.90;;;;;;5043246;28;20332;-91
2021/01/18 03:17:43;;;;;;;18.17;10.10;;;2.40;99.90;;;;;;5028517;28;20192;-91
2021/01/18 03:20:09;;;;;;;14.73;10.50;;;2.50;99.90;;;;;;5024132;28;20309;-91
2021/01/18 03:22:35;;;;;;;14.30;9.37;;;2.50;99.90;;;;;;5012943;28;20664;-91
2021/01/18 03:25:02;;;;;;;14.40;9.60;;;2.30;99.90;;;;;;5040107;28;20656;-91
2021/01/18 03:27:28;;;;;;;15.80;9.60;;;2.40;99.90;;;;;;5041947;28;20181;-92
2021/01/18 03:29:53;;;;;;;13.30;9.73;;;2.30;99.90;;;;;;5047973;28;20287;-91
2021/01/18 03:32:19;;;;;;;17.27;10.37;;;2.40;99.90;;;;;;5043797;28;20184;-91
2021/01/18 03:34:45;;;;;;;14.07;10.00;;;2.20;99.90;;;;;;5053525;28;20315;-91
2021/01/18 03:37:11;;;;;;;18.27;9.87;;;2.30;99.90;;;;;;5024323;28;20660;-91
2021/01/18 03:39:36;;;;;;;12.27;8.90;;;2.30;99.90;;;;;;5007473;28;20359;-91
2021/01/18 03:42:02;;;;;;;14.23;9.30;;;2.40;99.90;;;;;;5041276;28;20187;-90
2021/01/18 03:44:28;;;;;;;16.07;8.67;;;2.40;99.90;;;;;;5023460;28;20181;-91
2021/01/18 03:46:53;;;;;;;14.77;9.37;;;2.40;99.90;;;;;;5041624;28;20219;-89
2021/01/18 03:49:19;;;;;;;14.07;9.50;;;2.60;98.90;;;;;;5037993;28;20714;-90
2021/01/18 03:51:45;;;;;;;16.63;9.27;;;2.50;99.30;;;;;;5041416;28;20180;-92
2021/01/18 03:54:10;;;;;;;16.67;10.23;;;2.50;99.40;;;;;;5037507;28;20188;-90
2021/01/18 03:56:40;;;;;;;17.57;9.27;;;2.60;98.60;;;;;;5041771;28;20200;-91
2021/01/18 03:59:06;;;;;;;12.13;8.80;;;2.60;98.70;;;;;;5056198;28;20208;-91
2021/01/18 04:01:36;;;;;;;15.67;8.30;;;2.40;99.00;;;;;;5060498;28;20184;-91
2021/01/18 04:04:02;;;;;;;11.73;8.17;;;2.50;99.40;;;;;;5060583;28;20204;-91
2021/01/18 04:06:36;;;;;;;16.07;9.00;;;2.30;99.90;;;;;;5023352;28;20596;-91
2021/01/18 04:09:03;;;;;;;15.40;8.83;;;2.30;99.90;;;;;;5055973;28;20564;-91
2021/01/18 04:11:28;;;;;;;14.20;9.40;;;2.30;99.90;;;;;;5050432;28;20212;-91
2021/01/18 04:13:54;;;;;;;12.50;8.43;;;2.30;99.90;;;;;;5040612;28;20185;-91
2021/01/18 04:16:20;;;;;;;17.33;8.93;;;2.30;99.90;;;;;;5024084;28;20283;-91
2021/01/18 04:18:45;;;;;;;14.93;8.73;;;2.40;99.90;;;;;;5047259;28;20217;-91
2021/01/18 04:21:11;;;;;;;13.50;8.00;;;2.40;99.60;;;;;;5040430;28;20166;-91
2021/01/18 04:23:37;;;;;;;12.20;8.83;;;2.40;99.00;;;;;;5022695;28;20173;-90
2021/01/18 04:26:02;;;;;;;11.60;8.90;;;2.40;99.20;;;;;;5051306;28;20655;-90
2021/01/18 04:28:28;;;;;;;11.47;8.33;;;2.40;98.80;;;;;;5043428;28;20196;-90
2021/01/18 04:30:53;;;;;;;12.10;8.50;;;2.40;99.50;;;;;;5047025;28;20200;-91
2021/01/18 04:33:19;;;;;;;15.13;8.60;;;2.40;98.30;;;;;;5049227;28;20192;-91
2021/01/18 04:35:45;;;;;;;13.67;8.10;;;2.40;99.40;;;;;;5058950;28;20245;-91
2021/01/18 04:38:10;;;;;;;11.03;8.00;;;2.30;99.30;;;;;;5054712;28;20259;-90
2021/01/18 04:40:36;;;;;;;15.17;8.90;;;2.20;99.40;;;;;;5022526;28;20208;-91
2021/01/18 04:43:02;;;;;;;15.57;8.53;;;2.20;99.30;;;;;;5029294;28;20187;-91
2021/01/18 04:45:29;;;;;;;16.20;9.07;;;2.30;98.80;;;;;;5060055;28;20184;-91
2021/01/18 04:47:57;;;;;;;11.40;7.63;;;2.30;98.90;;;;;;5041262;28;20634;-91
2021/01/18 04:50:26;;;;;;;11.70;8.40;;;2.30;98.80;;;;;;5039626;28;20311;-91
2021/01/18 04:52:56;;;;;;;15.23;8.40;;;2.30;99.20;;;;;;5052103;28;20180;-91
2021/01/18 04:55:42;;;;;;;13.70;9.07;;;2.30;98.80;;;;;;5040955;28;20199;-91
2021/01/18 04:58:19;;;;;;;11.10;7.77;;;2.10;99.50;;;;;;5061085;28;20292;-91
2021/01/18 05:00:47;;;;;;;14.10;8.37;;;2.10;99.90;;;;;;5050779;28;20207;-91
2021/01/18 05:03:14;;;;;;;15.80;8.10;;;2.10;99.90;;;;;;5053268;28;20215;-90
2021/01/18 05:05:53;;;;;;;11.23;7.93;;;2.20;99.20;;;;;;5042883;28;20188;-90
2021/01/18 05:08:41;;;;;;;10.63;7.73;;;2.20;99.40;;;;;;5041771;28;20191;-90
2021/01/18 05:11:13;;;;;;;11.30;8.27;;;2.20;99.80;;;;;;5041548;28;20228;-90
2021/01/18 05:13:39;;;;;;;12.80;8.97;;;2.10;99.90;;;;;;5041808;28;20172;-90
2021/01/18 05:16:07;;;;;;;15.67;8.73;;;2.20;99.90;;;;;;5041632;28;20273;-90
2021/01/18 05:18:34;;;;;;;11.17;8.33;;;2.30;98.80;;;;;;5058999;28;20545;-90
2021/01/18 05:21:05;;;;;;;12.50;7.70;;;2.40;98.90;;;;;;5041474;28;20204;-90
2021/01/18 05:23:37;;;;;;;13.87;8.13;;;2.30;98.90;;;;;;5041160;28;20210;-90
2021/01/18 05:26:25;;;;;;;12.10;8.20;;;2.40;98.80;;;;;;5059340;28;20228;-90
2021/01/18 05:28:54;;;;;;;13.13;8.37;;;2.30;99.40;;;;;;5027171;28;20208;-90
2021/01/18 05:31:28;;;;;;;11.17;8.40;;;2.20;99.80;;;;;;5058744;28;20675;-90
2021/01/18 05:33:55;;;;;;;14.83;8.37;;;2.10;99.90;;;;;;5041107;28;20222;-89
2021/01/18 05:36:44;;;;;;;15.50;8.10;;;2.00;99.90;;;;;;5041146;28;20195;-90
2021/01/18 05:39:17;;;;;;;17.47;8.90;;;2.20;99.90;;;;;;5058867;28;20212;-89
2021/01/18 05:41:45;;;;;;;15.93;8.10;;;2.10;99.90;;;;;;5025021;28;20184;-91
2021/01/18 05:44:11;;;;;;;14.27;9.10;;;2.20;99.90;;;;;;5041499;28;20273;-91
2021/01/18 05:46:39;;;;;;;11.57;8.33;;;2.30;99.90;;;;;;5025458;28;20181;-90
2021/01/18 05:49:10;;;;;;;13.67;8.73;;;2.30;99.20;;;;;;5041753;28;20204;-91
2021/01/18 05:51:37;;;;;;;13.03;8.70;;;2.30;99.30;;;;;;5059100;28;20185;-91
2021/01/18 05:54:04;;;;;;;10.33;7.33;;;2.30;99.90;;;;;;5042087;28;20192;-90
2021/01/18 05:56:44;;;;;;;14.83;8.67;;;2.30;99.30;;;;;;5059602;28;20244;-91
2021/01/18 05:59:17;;;;;;;11.40;7.83;;;2.30;99.60;;;;;;5025574;28;20309;-91
2021/01/18 06:01:43;;;;;;;27.07;20.77;;;2.30;99.30;;;;;;5041263;28;20554;-90
2021/01/18 06:04:27;;;;;;;14.97;10.80;;;2.30;99.90;;;;;;5042140;28;20521;-93
2021/01/18 06:06:55;;;;;;;15.73;9.37;;;2.30;99.70;;;;;;5060368;28;20164;-92
2021/01/18 06:09:23;;;;;;;13.30;7.63;;;2.30;99.60;;;;;;5041616;28;20208;-92
2021/01/18 06:11:48;;;;;;;15.10;9.50;;;2.30;99.60;;;;;;5042917;28;20195;-92
2021/01/18 06:14:18;;;;;;;13.80;7.90;;;2.30;99.60;;;;;;5024596;28;20185;-93
2021/01/18 06:16:47;;;;;;;12.40;9.03;;;2.20;99.90;;;;;;5042521;28;20191;-92
2021/01/18 06:19:21;;;;;;;15.90;8.40;;;2.30;99.80;;;;;;5041371;28;20216;-93
2021/01/18 06:21:47;;;;;;;14.27;8.47;;;2.40;99.40;;;;;;5046363;28;20165;-93
2021/01/18 06:24:18;;;;;;;10.00;7.80;;;2.20;99.90;;;;;;5062259;28;20172;-93
2021/01/18 06:26:45;;;;;;;11.27;8.73;;;2.30;99.90;;;;;;5044679;28;20168;-92
2021/01/18 06:29:38;;;;;;;14.10;8.20;;;2.30;99.60;;;;;;5061881;28;20199;-93
2021/01/18 06:32:05;;;;;;;16.83;8.10;;;2.30;99.90;;;;;;5060154;28;20287;-93
2021/01/18 06:34:31;;;;;;;14.10;7.57;;;2.20;99.90;;;;;;5061949;28;20186;-93
2021/01/18 06:36:57;;;;;;;12.10;8.00;;;2.20;99.90;;;;;;5046631;28;20279;-93
2021/01/18 06:39:28;;;;;;;12.87;8.10;;;2.10;99.90;;;;;;5046798;28;20212;-93
2021/01/18 06:42:02;;;;;;;10.17;8.30;;;2.20;99.90;;;;;;5030284;28;20214;-93
2021/01/18 06:44:39;;;;;;;14.40;7.83;;;2.30;99.90;;;;;;5047220;28;20639;-93
2021/01/18 06:47:26;;;;;;;11.47;7.57;;;2.30;99.90;;;;;;5047952;28;20199;-93
2021/01/18 06:50:04;;;;;;;9.73;8.07;;;2.30;99.90;;;;;;5048460;28;20200;-94
2021/01/18 06:52:32;;;;;;;13.23;8.63;;;2.30;99.90;;;;;;5048724;28;20172;-93
2021/01/18 06:55:10;;;;;;;11.33;9.03;;;2.20;99.90;;;;;;5047426;28;20200;-93
2021/01/18 06:57:54;;;;;;;12.90;8.90;;;2.30;99.90;;;;;;5048453;28;20690;-94
2021/01/18 07:00:20;;;;;;;12.83;8.90;;;2.40;99.90;;;;;;5048366;28;20203;-94
2021/01/18 07:02:54;;;;;;;13.37;8.43;;;2.30;99.90;;;;;;5032745;28;20173;-93
2021/01/18 07:05:31;;;;;;;13.73;9.97;;;2.40;99.70;;;;;;5048860;28;20174;-93
2021/01/18 07:08:18;;;;;;;13.70;9.43;;;2.40;99.90;;;;;;5066313;28;20180;-94
2021/01/18 07:10:46;;;;;;;14.20;9.93;;;2.40;99.70;;;;;;5032499;28;20576;-93
2021/01/18 07:13:13;;;;;;;13.40;9.20;;;2.40;99.90;;;;;;5067415;28;20204;-94
2021/01/18 07:15:41;;;;;;;13.57;9.60;;;2.40;99.90;;;;;;5049960;28;20858;-93
2021/01/18 07:18:11;;;;;;;12.77;9.83;;;2.30;99.90;;;;;;5048892;28;20295;-94
2021/01/18 07:20:46;;;;;;;12.50;9.03;;;2.30;99.90;;;;;;5048674;28;20944;-93
2021/01/18 07:23:12;;;;;;;11.33;8.73;;;2.40;99.90;;;;;;5066581;28;20258;-94
2021/01/18 07:25:41;;;;;;;14.97;9.67;;;2.40;99.90;;;;;;5049217;28;20176;-94
2021/01/18 07:28:09;;;;;;;13.93;9.67;;;2.50;99.40;;;;;;5048953;28;20188;-92
2021/01/18 07:30:36;;;;;;;14.67;9.23;;;2.30;99.90;;;;;;5048418;28;20254;-92
2021/01/18 07:33:15;;;;;;;16.40;9.77;;;2.40;99.90;;;;;;5047659;28;20211;-93
2021/01/18 07:35:43;;;;;;;14.17;10.50;;;2.20;99.90;;;;;;5065660;28;20181;-92
2021/01/18 07:38:12;;;;;;;18.73;9.90;;;2.20;99.90;;;;;;5047171;28;20212;-92
2021/01/18 07:40:39;;;;;;;14.17;9.20;;;2.30;99.90;;;;;;5064598;28;20250;-94
2021/01/18 07:43:05;;;;;;;19.63;10.70;;;2.30;99.90;;;;;;5030343;28;20184;-93
2021/01/18 07:45:31;;;;;;;14.80;10.07;;;2.30;99.90;;;;;;5031474;28;20180;-93
2021/01/18 07:47:56;;;;;;;16.77;9.80;;;2.20;99.90;;;;;;5062797;28;20191;-94
2021/01/18 07:50:39;;;;;;;15.13;9.93;;;2.20;99.90;;;;;;5072373;28;20246;-93
2021/01/18 07:53:11;;;;;;;13.90;10.33;;;2.20;99.90;;;;;;5066602;28;20180;-93
2021/01/18 07:55:37;;;;;;;9.67;8.30;;;2.40;99.90;;;;;;5074594;28;20153;-93
2021/01/18 07:58:13;;;;;;;14.37;9.07;;;2.40;99.90;;;;;;5079464;28;20197;-93
2021/01/18 08:00:39;;;;;;;14.37;8.30;;;2.50;99.10;;;;;;5049685;28;20290;-94
2021/01/18 08:03:08;;;;;;;13.57;8.97;;;2.40;99.90;;;;;;5045853;28;20275;-93
2021/01/18 08:05:36;;;;;;;11.97;9.20;;;2.50;99.80;;;;;;5043988;28;20199;-93
2021/01/18 08:08:08;;;;;;;15.50;9.37;;;2.50;99.90;;;;;;5045244;28;20550;-93
2021/01/18 08:10:50;;;;;;;10.93;8.73;;;2.40;99.90;;;;;;5045721;28;20207;-93
2021/01/18 08:13:38;;;;;;;10.17;8.80;;;2.40;99.90;;;;;;5045239;28;20200;-94
2021/01/18 08:16:13;;;;;;;12.47;8.83;;;2.40;99.90;;;;;;5043836;28;20631;-94
2021/01/18 08:18:49;;;;;;;12.00;8.33;;;2.30;99.90;;;;;;5043635;28;20210;-93
2021/01/18 08:21:33;;;;;;;10.40;8.50;;;2.40;99.90;;;;;;5044394;28;20172;-93
2021/01/18 08:24:05;;;;;;;12.93;8.17;;;2.40;99.90;;;;;;5062975;28;20168;-93
2021/01/18 08:26:59;;;;;;;10.27;8.53;;;2.40;99.90;;;;;;5045581;28;20182;-93
2021/01/18 08:29:40;;;;;;;9.07;7.30;;;2.30;99.90;;;;;;5046189;28;20305;-93
2021/01/18 08:32:31;;;;;;;11.87;7.63;;;2.50;99.90;;;;;;5068242;28;20627;-93
2021/01/18 08:35:18;;;;;;;15.63;7.97;;;2.50;99.90;;;;;;5063090;28;20566;-94
2021/01/18 08:38:06;;;;;;;10.13;7.23;;;2.50;99.90;;;;;;5045632;28;20204;-94
2021/01/18 08:40:44;;;;;;;16.77;8.93;;;2.60;99.80;;;;;;5044753;28;20234;-94
2021/01/18 08:43:12;;;;;;;9.40;7.87;;;2.50;99.90;;;;;;5063397;28;20214;-93
2021/01/18 08:45:49;;;;;;;10.03;7.70;;;2.50;99.90;;;;;;5028698;28;20662;-93
2021/01/18 08:48:20;;;;;;;11.97;9.30;;;2.50;99.90;;;;;;5044990;28;20172;-93
2021/01/18 08:50:53;;;;;;;11.80;8.10;;;2.40;99.90;;;;;;5045884;28;20704;-93
2021/01/18 08:53:41;;;;;;;10.50;7.87;;;2.30;99.90;;;;;;5030311;28;20177;-94
2021/01/18 08:56:27;;;;;;;12.37;8.20;;;2.30;99.90;;;;;;5062530;28;20165;-94
2021/01/18 08:58:54;;;;;;;10.57;7.90;;;2.40;99.90;;;;;;5044794;28;20232;-93
2021/01/18 09:01:22;;;;;;;12.67;8.67;;;2.40;99.90;;;;;;5064813;28;20183;-93
2021/01/18 09:04:06;;;;;;;11.83;8.53;;;2.50;99.90;;;;;;5044437;28;20204;-93
2021/01/18 09:06:32;;;;;;;11.63;8.33;;;2.50;99.90;;;;;;5061983;28;20234;-93
2021/01/18 09:09:09;;;;;;;11.60;7.83;;;2.60;99.80;;;;;;5045437;28;20212;-94
2021/01/18 09:11:35;;;;;;;11.40;8.03;;;2.70;99.50;;;;;;5043924;28;20183;-94
2021/01/18 09:14:04;;;;;;;15.43;8.93;;;2.60;99.30;;;;;;5044565;28;20191;-94
2021/01/18 09:16:29;;;;;;;12.37;8.80;;;2.60;99.60;;;;;;5029323;28;20283;-93
2021/01/18 09:19:07;;;;;;;14.90;8.83;;;2.60;99.70;;;;;;5044518;28;20239;-93
2021/01/18 09:21:33;;;;;;;14.73;9.27;;;2.60;99.60;;;;;;5030156;28;20180;-94
2021/01/18 09:24:08;;;;;;;13.70;9.20;;;2.60;99.90;;;;;;5028066;28;20184;-94
2021/01/18 09:26:34;;;;;;;9.97;8.13;;;2.60;99.90;;;;;;5062440;28;20167;-95
2021/01/18 09:29:00;;;;;;;12.33;8.60;;;2.60;99.90;;;;;;5043943;28;20214;-93
2021/01/18 09:31:26;;;;;;;11.77;8.63;;;2.50;99.90;;;;;;5044509;28;20231;-94
2021/01/18 09:33:52;;;;;;;12.37;9.73;;;2.60;99.40;;;;;;5044026;28;20189;-93
2021/01/18 09:36:22;;;;;;;13.37;8.43;;;2.70;99.00;;;;;;5028588;28;20199;-93
2021/01/18 09:38:51;;;;;;;12.83;9.50;;;2.70;99.70;;;;;;5044172;28;20222;-94
2021/01/18 09:41:17;;;;;;;12.73;8.87;;;2.70;99.80;;;;;;5044509;28;20186;-93
2021/01/18 09:43:44;;;;;;;12.10;8.93;;;2.70;99.50;;;;;;5044173;28;20172;-95
2021/01/18 09:46:10;;;;;;;10.90;9.27;;;2.60;99.90;;;;;;5044287;28;20203;-93
2021/01/18 09:48:39;;;;;;;12.57;8.73;;;2.80;99.60;;;;;;5042853;28;20185;-93
2021/01/18 09:51:07;;;;;;;10.60;8.50;;;2.70;99.40;;;;;;5042767;28;20242;-93
2021/01/18 09:53:34;;;;;;;9.13;8.13;;;2.70;99.90;;;;;;5050871;28;20208;-95
2021/01/18 09:56:08;;;;;;;12.17;8.50;;;2.70;99.90;;;;;;5044003;28;20192;-93
2021/01/18 09:58:46;;;;;;;14.70;9.27;;;2.70;99.90;;;;;;5038752;28;20669;-93
2021/01/18 10:01:17;;;;;;;12.03;9.13;;;2.70;99.90;;;;;;5007724;28;20195;-92
2021/01/18 10:04:04;;;;;;;10.33;8.93;;;2.70;99.50;;;;;;5022479;28;20727;-92
2021/01/18 10:06:31;;;;;;;12.00;8.63;;;2.70;99.40;;;;;;5022219;28;20173;-92
2021/01/18 10:09:08;;;;;;;10.80;8.83;;;2.70;99.90;;;;;;5039933;28;20193;-93
2021/01/18 10:11:43;;;;;;;11.17;8.27;;;2.70;99.90;;;;;;5038941;28;20322;-92
2021/01/18 10:14:23;;;;;;;11.20;8.20;;;2.80;99.10;;;;;;5005910;28;20173;-92
2021/01/18 10:17:06;;;;;;;10.10;8.13;;;2.70;99.20;;;;;;5021947;28;20223;-93
2021/01/18 10:19:34;;;;;;;10.07;7.73;;;2.80;99.90;;;;;;5021763;28;20589;-93
2021/01/18 10:22:01;;;;;;;9.57;7.43;;;3.00;98.20;;;;;;5039298;28;20185;-93
2021/01/18 10:24:35;;;;;;;11.00;7.63;;;3.10;96.90;;;;;;5039728;28;20181;-92
2021/01/18 10:27:15;;;;;;;8.67;7.10;;;3.10;98.00;;;;;;5009380;28;20187;-93
2021/01/18 10:29:41;;;;;;;9.67;7.63;;;3.10;96.50;;;;;;5059961;28;20199;-93
2021/01/18 10:32:08;;;;;;;13.67;8.10;;;3.20;97.10;;;;;;5059792;28;20182;-93
2021/01/18 10:34:35;;;;;;;10.87;7.93;;;3.10;97.70;;;;;;5060197;28;20765;-92
2021/01/18 10:37:12;;;;;;;9.73;7.50;;;3.10;96.80;;;;;;5062028;28;20204;-93
2021/01/18 10:39:42;;;;;;;9.97;7.03;;;3.10;97.80;;;;;;5071747;28;20222;-92
2021/01/18 10:42:15;;;;;;;12.00;7.60;;;3.20;96.70;;;;;;5047159;28;20165;-92
2021/01/18 10:44:51;;;;;;;11.83;7.57;;;3.20;96.90;;;;;;5026155;28;20214;-93
2021/01/18 10:47:21;;;;;;;14.03;7.77;;;3.20;96.70;;;;;;5041788;28;20186;-93
2021/01/18 10:49:58;;;;;;;11.90;8.03;;;3.20;97.50;;;;;;5041514;28;20208;-93
2021/01/18 10:52:39;;;;;;;12.87;7.20;;;3.20;97.10;;;;;;5060019;28;20157;-93
2021/01/18 10:55:06;;;;;;;8.57;7.07;;;3.30;95.30;;;;;;5041855;28;20275;-92
2021/01/18 10:57:38;;;;;;;10.70;6.67;;;3.30;95.80;;;;;;5041677;28;20256;-92
2021/01/18 11:00:12;;;;;;;11.83;6.97;;;3.40;94.40;;;;;;5025988;28;20255;-92
2021/01/18 11:02:40;;;;;;;9.60;6.80;;;3.30;95.50;;;;;;5060238;28;20194;-93
2021/01/18 11:05:07;;;;;;;10.93;7.20;;;3.40;95.10;;;;;;5042646;28;20185;-93
2021/01/18 11:07:35;;;;;;;10.47;7.37;;;3.30;95.70;;;;;;5026642;28;20273;-92
2021/01/18 11:10:01;;;;;;;11.23;6.70;;;3.50;95.50;;;;;;5027184;28;20208;-92
2021/01/18 11:12:34;;;;;;;10.63;6.67;;;3.50;94.50;;;;;;5042924;28;20238;-93
2021/01/18 11:15:01;;;;;;;9.20;7.47;;;3.50;95.10;;;;;;5041892;28;20204;-92
2021/01/18 11:17:28;;;;;;;7.93;6.57;;;3.60;95.60;;;;;;5059598;28;20177;-92
2021/01/18 11:19:54;;;;;;;8.90;6.23;;;3.70;93.90;;;;;;5059950;28;20211;-93
2021/01/18 11:22:20;;;;;;;7.30;6.60;;;3.80;91.90;;;;;;5030015;28;20653;-92
2021/01/18 11:24:47;;;;;;;13.13;8.03;;;3.60;93.30;;;;;;5063201;28;20192;-93
2021/01/18 11:27:12;;;;;;;8.17;6.63;;;3.50;95.00;;;;;;5028694;28;20242;-92
2021/01/18 11:29:38;;;;;;;8.07;6.33;;;3.80;92.90;;;;;;5046650;28;20208;-93
2021/01/18 11:32:04;;;;;;;9.23;6.10;;;3.80;91.00;;;;;;5029567;28;20229;-93
2021/01/18 11:34:30;;;;;;;9.07;6.87;;;3.70;91.40;;;;;;5046674;28;20243;-92
2021/01/18 11:37:05;;;;;;;7.57;6.23;;;3.60;93.20;;;;;;5045833;28;20176;-92
2021/01/18 11:39:31;;;;;;;8.60;7.00;;;3.70;92.30;;;;;;5064708;28;20207;-93
2021/01/18 11:42:06;;;;;;;10.57;7.03;;;3.80;92.70;;;;;;5045771;28;20185;-93
2021/01/18 11:44:33;;;;;;;9.57;6.67;;;3.60;92.60;;;;;;5063950;28;20164;-92
2021/01/18 11:47:00;;;;;;;10.03;7.23;;;3.50;93.20;;;;;;5045933;28;20717;-93
2021/01/18 11:49:26;;;;;;;8.60;7.27;;;3.50;93.90;;;;;;5045832;28;20235;-93
2021/01/18 11:51:54;;;;;;;8.57;6.90;;;3.60;92.20;;;;;;5029359;28;20188;-92
2021/01/18 11:54:23;;;;;;;14.30;7.83;;;3.60;93.40;;;;;;5045953;28;20235;-93
2021/01/18 11:56:49;;;;;;;12.83;7.67;;;3.70;92.60;;;;;;5030214;28;20216;-92
2021/01/18 11:59:14;;;;;;;10.67;7.83;;;3.60;93.30;;;;;;5029359;28;20231;-92
2021/01/18 12:01:44;;;;;;;11.30;8.07;;;3.70;94.20;;;;;;5030003;28;20256;-94
2021/01/18 12:04:10;;;;;;;11.13;7.37;;;3.60;94.00;;;;;;5045057;28;20176;-93
2021/01/18 12:06:37;;;;;;;10.00;8.13;;;3.70;93.20;;;;;;5063052;28;20643;-93
2021/01/18 12:09:07;;;;;;;11.43;7.80;;;3.70;94.70;;;;;;5046328;28;20223;-93
2021/01/18 12:11:38;;;;;;;11.67;8.47;;;3.70;94.50;;;;;;5029315;28;20191;-93
2021/01/18 12:14:04;;;;;;;13.00;8.00;;;3.80;93.80;;;;;;5046663;28;20252;-93
2021/01/18 12:16:30;;;;;;;13.60;8.10;;;3.70;93.70;;;;;;5030222;28;20180;-91
2021/01/18 12:18:56;;;;;;;11.00;8.03;;;3.80;94.60;;;;;;5063225;28;20230;-92
2021/01/18 12:21:22;;;;;;;10.73;8.30;;;3.80;94.00;;;;;;5045388;28;20175;-92
2021/01/18 12:23:48;;;;;;;11.40;8.30;;;3.90;93.30;;;;;;5044698;28;20180;-92
2021/01/18 12:26:21;;;;;;;12.33;8.50;;;4.00;92.40;;;;;;5028483;28;20184;-92
2021/01/18 12:28:48;;;;;;;12.53;8.67;;;4.10;91.50;;;;;;5044450;28;20200;-93
2021/01/18 12:31:15;;;;;;;10.73;8.03;;;4.10;91.70;;;;;;5044988;28;20207;-92
2021/01/18 12:33:41;;;;;;;11.13;7.40;;;4.20;91.80;;;;;;5063242;28;20176;-92
2021/01/18 12:36:08;;;;;;;7.87;7.07;;;4.20;91.00;;;;;;5045393;28;20539;-93
2021/01/18 12:38:34;;;;;;;12.53;8.20;;;4.20;91.60;;;;;;5063812;28;20381;-92
2021/01/18 12:41:00;;;;;;;10.10;8.10;;;4.00;91.70;;;;;;5047948;28;20266;-92
2021/01/18 12:43:26;;;;;;;15.07;8.53;;;3.90;93.40;;;;;;5045324;28;20184;-93
2021/01/18 12:45:52;;;;;;;9.87;7.70;;;4.00;93.00;;;;;;5045266;28;20208;-94
2021/01/18 12:48:18;;;;;;;10.53;7.00;;;3.90;93.30;;;;;;5047795;28;20172;-93
2021/01/18 12:50:44;;;;;;;11.90;7.50;;;4.10;91.70;;;;;;5046540;28;20329;-92
2021/01/18 12:53:42;;;;;;;10.63;7.57;;;4.20;91.40;;;;;;5045458;28;20286;-93
2021/01/18 12:55:59;;;;;;;10.37;7.30;;;4.20;90.60;;;;;;5048080;28;20536;-93
2021/01/18 12:58:25;;;;;;;10.33;7.83;;;4.10;91.70;;;;;;5041149;28;20235;-94
2021/01/18 13:00:54;;;;;;;11.57;7.53;;;4.30;90.80;;;;;;5041925;28;20687;-93